Tiempo atmosférico en la estación meteorológica de Garganta De La Olla, Cáceres (690 m.)



Fecha
DESCASC
Temp. máxima en grados centígrados (hora)
DESCASC
Temp. mínima en grados centígrados (hora)
DESCASC
Temp. media en grados centígrados
DESCASC
Racha de viento máxima en m/sg (hora)
DESCASC
Velocidad máxima media en intervalos de 10 minutos(hora)
DESCASC
Precipitaciones diarias en mm
DESCASC
Precipitaciones de 00:00 a 06:00 en mm
DESCASC
Precipitaciones de 06:00 a 12:00 en mm
DESCASC
Precipitaciones de 12:00 a 18:00 en mm
DESCASC
Precipitaciones de 18:00 a 24:00 en mm
DESCASC

Gráficas

Temp. máximas Temp. mínimas Temp. medias Precipitaciones Rachas de viento máximas Velocidades máximas media en intervalos de 10 minutos

Datos horarios

Fecha y hora oficial Temperatura (ºC) Velocidad del viento (km/h) Dirección del viento Racha (km/h) Dirección de racha Precipitación (mm) Presión (hPa) Tendencia (hPa) Humedad (%)
2019-10-16 23:00:00 13.5 4 Noroeste 8 Noroeste 0 -- -- 70
2019-10-16 22:00:00 12.5 6 Noroeste 15 Noroeste 0 -- -- 73
2019-10-16 21:00:00 11.5 7 Noroeste 17 Oeste 0 -- -- 76
2019-10-16 20:00:00 13.5 8 Noroeste 12 Noroeste 0 -- -- 69
2019-10-16 19:00:00 14.3 5 Noroeste 9 Oeste 0 -- -- 65
2019-10-16 18:00:00 16.7 4 Oeste 17 Sudoeste 0 -- -- 55
2019-10-16 17:00:00 17.6 9 Sur 18 Sur 0 -- -- 54
2019-10-16 16:00:00 17.9 8 Noroeste 15 Noroeste 0 -- -- 54
2019-10-16 15:00:00 16.8 9 Norte 24 Oeste 0 -- -- 51
2019-10-16 14:00:00 17.2 6 Norte 22 Sur 0 -- -- 52
2019-10-16 13:00:00 16.7 5 Noroeste 14 Noroeste 0 -- -- 50
2019-10-16 12:00:00 16 5 Este 13 Sudeste 0 -- -- 48
2019-10-16 11:00:00 14.5 4 Noroeste 25 Noroeste 0 -- -- 58
2019-10-16 10:00:00 13.2 9 Norte 21 Norte 0 -- -- 66
2019-10-16 09:00:00 9.8 8 Noroeste 16 Norte 0 -- -- 84
2019-10-16 08:00:00 9.7 8 Noroeste 15 Noroeste 0 -- -- 82
2019-10-16 07:00:00 10.2 5 Noroeste 17 Norte 0 -- -- 79
2019-10-16 06:00:00 10 9 Noroeste 15 Noroeste 0 -- -- 79
2019-10-16 05:00:00 9.8 8 Noroeste 17 Noroeste 0 -- -- 80
2019-10-16 04:00:00 10.5 9 Noroeste 15 Noroeste 0 -- -- 76
2019-10-16 03:00:00 10.1 3 Noroeste 12 Noroeste 0 -- -- 76
2019-10-16 02:00:00 10.4 0 Calma 8 Oeste 0 -- -- 75
2019-10-16 01:00:00 11.1 3 Sudoeste 15 Norte 0 -- -- 73
2019-10-16 00:00:00 10.1 8 Noroeste 17 Noroeste 0 -- -- 77
2019-10-15 23:00:00 10.4 10 Noroeste 15 Noroeste 0 -- -- 76
2019-10-15 22:00:00 10 10 Noroeste 16 Noroeste 0 -- -- 76
2019-10-15 21:00:00 9.5 9 Noroeste 14 Oeste 0 -- -- 77
2019-10-15 20:00:00 10.6 11 Noroeste 23 Noroeste 0 -- -- 73
2019-10-15 19:00:00 12.7 13 Noroeste 26 Noroeste 0 -- -- 63
2019-10-15 18:00:00 14.5 12 Noroeste 21 Noroeste 0 -- -- 58
2019-10-15 17:00:00 15 3 Nordeste 9 Sudeste 0 -- -- 57
2019-10-15 16:00:00 15 4 Sudeste 15 Sudeste 0 -- -- 59
2019-10-15 15:00:00 15 7 Sur 14 Sudeste 0 -- -- 56
2019-10-15 14:00:00 14.3 8 Sudeste 15 Sur 0 -- -- 56
2019-10-15 13:00:00 13.9 10 Sur 17 Sudeste 0 -- -- 57
2019-10-15 12:00:00 13.6 8 Sudeste 15 Sudeste 0 -- -- 56
2019-10-15 11:00:00 12.4 5 Sudeste 9 Sudeste 0 -- -- 53
2019-10-15 10:00:00 9.8 2 Norte 8 Noroeste 0 -- -- 66
2019-10-15 09:00:00 5.8 5 Noroeste 12 Sur 0 -- -- 78
2019-10-15 08:00:00 8.2 4 Norte 38 Noroeste 0 -- -- 64
2019-10-15 07:00:00 9.7 26 Noroeste 44 Noroeste 0 -- -- 56
2019-10-15 06:00:00 9 23 Norte 40 Norte 0 -- -- 63
2019-10-15 05:00:00 7.6 11 Noroeste 29 Norte 0 -- -- 72
2019-10-15 04:00:00 9.3 10 Norte 47 Norte 0 -- -- 64
2019-10-15 03:00:00 9.5 22 Norte 42 Norte 0 -- -- 63
2019-10-15 02:00:00 8.8 19 Norte 37 Norte 0 -- -- 68
2019-10-15 01:00:00 8.9 18 Norte 47 Norte 0 -- -- 70
2019-10-15 00:00:00 9.5 31 Norte 54 Norte 0 -- -- 67
2019-10-14 23:00:00 9.5 22 Norte 42 Norte 0 -- -- 73
2019-10-14 22:00:00 9.2 22 Norte 35 Norte 0 -- -- 80
2019-10-14 21:00:00 9.7 19 Norte 40 Norte 0 -- -- 77
2019-10-14 20:00:00 9.7 9 Norte 31 Noroeste 0 -- -- 83
2019-10-14 19:00:00 11 7 Norte 30 Noroeste 0 -- -- 85
2019-10-14 18:00:00 11.5 12 Noroeste 30 Noroeste 0.2 -- -- 81
2019-10-14 17:00:00 10.6 9 Noroeste 32 Noroeste 1 -- -- 90
2019-10-14 16:00:00 10.8 12 Noroeste 39 Noroeste 8.8 -- -- 88
2019-10-14 15:00:00 12.8 5 Sudoeste 17 Sur 1.8 -- -- 84
2019-10-14 14:00:00 14.7 4 Sur 31 Sudoeste 0 -- -- 69
2019-10-14 13:00:00 15.8 8 Sur 26 Noroeste 0 -- -- 65
2019-10-14 12:00:00 15.1 10 Noroeste 31 Norte 0 -- -- 68
2019-10-14 11:00:00 13.9 6 Nordeste 26 Oeste 0 -- -- 83
2019-10-14 10:00:00 12.5 11 Oeste 32 Oeste 0 -- -- 82
2019-10-14 09:00:00 11.9 13 Noroeste 35 Noroeste 10.8 -- -- 86
2019-10-14 08:00:00 13.8 10 Sur 19 Sur 0.6 -- -- 92
2019-10-14 07:00:00 15.2 10 Sudoeste 34 Sudoeste 0 -- -- 79
2019-10-14 06:00:00 15.6 0 Calma 10 Sur 0 -- -- 69
2019-10-14 05:00:00 16.6 3 Sudoeste 9 Sudoeste 0 -- -- 65
2019-10-14 04:00:00 17.2 6 Sudoeste 9 Sudoeste -- -- -- 61
2019-10-14 03:00:00 16.9 0 Calma 13 Sudoeste 0 -- -- 61
2019-10-14 02:00:00 16.9 0 Calma 11 Sudoeste 0 -- -- 61
2019-10-14 01:00:00 17.1 3 Sur 10 Sudoeste 0 -- -- 61
2019-10-14 00:00:00 16.7 2 Sur 7 Sudoeste 0 -- -- 64
2019-10-13 23:00:00 16.6 3 Oeste 10 Noroeste 0 -- -- 64
2019-10-13 22:00:00 16.5 5 Noroeste 12 Noroeste 0 -- -- 64
2019-10-13 21:00:00 16.4 6 Noroeste 15 Noroeste 0 -- -- 64
2019-10-13 20:00:00 16.8 5 Noroeste 10 Sudoeste 0 -- -- 65
2019-10-13 19:00:00 18.9 7 Sur 22 Sudeste 0 -- -- 59
2019-10-13 18:00:00 20.7 9 Sur 20 Sur 0 -- -- 56
2019-10-13 17:00:00 20.7 8 Sur 21 Sudeste 0 -- -- 54
2019-10-13 16:00:00 20.4 9 Sudeste 23 Sudeste 0 -- -- 56
2019-10-13 15:00:00 18.6 5 Sudeste 15 Sur 0 -- -- 59
2019-10-13 14:00:00 19.1 7 Sudeste 19 Sudeste 0 -- -- 59
2019-10-13 13:00:00 19 8 Sur 19 Sur 0 -- -- 56
2019-10-13 12:00:00 18.4 10 Sur 17 Sur 0 -- -- 64
2019-10-13 11:00:00 16.7 9 Sur 16 Sur 0 -- -- 73
2019-10-13 10:00:00 16.5 6 Sudeste 10 Sur 0 -- -- 74
2019-10-13 09:00:00 15 5 Sur 12 Sur 0 -- -- 78
2019-10-13 08:00:00 15.5 9 Sur 15 Sur 0 -- -- 76
2019-10-13 07:00:00 16 5 Sur 17 Oeste 0 -- -- 75
2019-10-13 06:00:00 16.1 7 Oeste 27 Oeste 0 -- -- 79
2019-10-13 05:00:00 17.1 10 Oeste 21 Oeste 0 -- -- 77
2019-10-13 04:00:00 17.2 2 Sudeste 10 Sudoeste 0 -- -- 79
2019-10-13 03:00:00 16.9 0 Calma 5 Noroeste 0 -- -- 74
2019-10-13 02:00:00 16.9 4 Sudoeste 8 Noroeste 0 -- -- 73
2019-10-13 01:00:00 17.4 5 Noroeste 8 Noroeste 0 -- -- 71
2019-10-13 00:00:00 19.4 3 Este 10 Noroeste 0 -- -- 63
2019-10-12 23:00:00 20.9 5 Oeste 21 Oeste 0 -- -- 53
2019-10-12 22:00:00 21.3 6 Oeste 14 Oeste 0 -- -- 50
2019-10-12 21:00:00 21.2 3 Sudoeste 11 Noroeste 0 -- -- 44
2019-10-12 20:00:00 21.4 5 Noroeste 12 Noroeste 0 -- -- 46
2019-10-12 19:00:00 23.5 7 Sur 28 Sur 0 -- -- 43
2019-10-12 18:00:00 25.3 9 Sudeste 21 Sudeste 0 -- -- 40
2019-10-12 17:00:00 25.4 10 Sur 24 Sudeste 0 -- -- 39
2019-10-12 16:00:00 25.9 14 Sur 27 Sudeste 0 -- -- 38
2019-10-12 15:00:00 24.8 9 Sur 22 Sur 0 -- -- 42
2019-10-12 14:00:00 25.2 7 Sur 19 Sur 0 -- -- 42
2019-10-12 13:00:00 24.1 6 Sur 17 Sur 0 -- -- 48
2019-10-12 12:00:00 21.8 4 Sudeste 9 Sudeste 0 -- -- 60
2019-10-12 11:00:00 20.3 2 Oeste 9 Noroeste 0 -- -- 68
2019-10-12 10:00:00 19.3 7 Sur 14 Sur 0 -- -- 62
2019-10-12 09:00:00 18.8 7 Noroeste 14 Noroeste 0 -- -- 57
2019-10-12 08:00:00 18.6 6 Noroeste 15 Noroeste 0 -- -- 61
2019-10-12 07:00:00 18.7 6 Oeste 14 Oeste 0 -- -- 62
2019-10-12 06:00:00 19.1 6 Noroeste 12 Noroeste 0 -- -- 61
2019-10-12 05:00:00 19.3 5 Noroeste 9 Noroeste 0 -- -- 60
2019-10-12 04:00:00 20 0 Calma 6 Este 0 -- -- 56
2019-10-12 03:00:00 19.8 3 Norte 9 Oeste 0 -- -- 57
2019-10-12 02:00:00 20.3 2 Norte 9 Noroeste 0 -- -- 58
2019-10-12 01:00:00 20.4 0 Calma 16 Noroeste 0 -- -- 62
2019-10-12 00:00:00 20.5 4 Noroeste 13 Noroeste 0 -- -- 62
2019-10-11 23:00:00 20.7 8 Noroeste 14 Noroeste 0 -- -- 63
2019-10-11 22:00:00 20.9 6 Noroeste 12 Noroeste 0 -- -- 63
2019-10-11 21:00:00 20.6 3 Noroeste 10 Noroeste 0 -- -- 64
2019-10-11 20:00:00 21 6 Noroeste 11 Noroeste 0 -- -- 61
2019-10-11 19:00:00 23.4 6 Sudoeste 13 Sur 0 -- -- 55
2019-10-11 18:00:00 25 6 Sur 16 Sur 0 -- -- 50
2019-10-11 17:00:00 25.6 8 Sur 21 Sur 0 -- -- 49
2019-10-11 16:00:00 26.3 12 Sur 18 Sur 0 -- -- 47
2019-10-11 15:00:00 25.7 9 Sudeste 19 Sur 0 -- -- 52
2019-10-11 14:00:00 24.8 10 Sur 18 Sur 0 -- -- 56
2019-10-11 13:00:00 23.5 8 Sudoeste 17 Sur 0 -- -- 59
2019-10-11 12:00:00 22.3 6 Sudeste 14 Sudeste 0 -- -- 62
2019-10-11 11:00:00 21.4 7 Sur 15 Sur 0 -- -- 64
2019-10-11 10:00:00 20 4 Sur 9 Sur 0 -- -- 65
2019-10-11 09:00:00 16.6 0 Calma 4 Noroeste 0 -- -- 75
2019-10-11 08:00:00 16 0 Calma 8 Noroeste 0 -- -- 76
2019-10-11 07:00:00 16.8 0 Calma 12 Sudoeste 0 -- -- 69
2019-10-11 06:00:00 18.4 6 Sudoeste 12 Noroeste 0 -- -- 57
2019-10-11 05:00:00 19 8 Noroeste 15 Noroeste 0 -- -- 53
2019-10-11 04:00:00 18.9 6 Noroeste 13 Noroeste 0 -- -- 51
2019-10-11 03:00:00 20.1 3 Noroeste 15 Noroeste 0 -- -- 49
2019-10-11 02:00:00 19.9 9 Noroeste 15 Noroeste 0 -- -- 50
2019-10-11 01:00:00 19.5 10 Noroeste 17 Noroeste 0 -- -- 51
2019-10-11 00:00:00 20 9 Noroeste 14 Noroeste 0 -- -- 50
2019-10-10 23:00:00 20.4 9 Noroeste 19 Noroeste 0 -- -- 45
2019-10-10 22:00:00 20.3 12 Noroeste 20 Noroeste 0 -- -- 45
2019-10-10 21:00:00 20.8 10 Noroeste 20 Noroeste 0 -- -- 45
2019-10-10 20:00:00 20.5 12 Noroeste 19 Noroeste 0 -- -- 50
2019-10-10 19:00:00 21.4 8 Noroeste 13 Noroeste 0 -- -- 53
2019-10-10 18:00:00 26.2 2 Sudoeste 9 Sudoeste 0 -- -- 42
2019-10-10 17:00:00 26.5 0 Calma 14 Sudoeste 0 -- -- 40
2019-10-10 16:00:00 26.6 7 Sur 18 Sur 0 -- -- 42
2019-10-10 15:00:00 25.4 8 Sur 16 Sur 0 -- -- 47
2019-10-10 14:00:00 24.3 8 Sur 19 Sur 0 -- -- 52
2019-10-10 13:00:00 23 6 Sur 14 Sur 0 -- -- 53
2019-10-10 12:00:00 21.6 6 Sudeste 14 Sur 0 -- -- 55
2019-10-10 11:00:00 20.1 6 Sur 12 Sur 0 -- -- 47
2019-10-10 10:00:00 18.4 3 Sudeste 6 Oeste 0 -- -- 52
2019-10-10 09:00:00 15.1 5 Sudoeste 7 Sudoeste 0 -- -- 59
2019-10-10 08:00:00 14.5 7 Noroeste 15 Sudoeste 0 -- -- 58
2019-10-10 07:00:00 15.6 2 Noroeste 16 Noroeste 0 -- -- 54
2019-10-10 06:00:00 17.1 12 Noroeste 21 Noroeste 0 -- -- 49
2019-10-10 05:00:00 17.9 3 Oeste 9 Sudoeste 0 -- -- 48
2019-10-10 04:00:00 17.8 3 Sur 7 Noroeste 0 -- -- 50
2019-10-10 03:00:00 18.5 4 Sur 16 Noroeste 0 -- -- 46
2019-10-10 02:00:00 19.6 9 Noroeste 14 Noroeste 0 -- -- 44
2019-10-10 01:00:00 19 6 Noroeste 14 Noroeste 0 -- -- 46
2019-10-10 00:00:00 19.8 9 Noroeste 15 Noroeste 0 -- -- 43
2019-10-09 23:00:00 20.7 8 Noroeste 17 Noroeste 0 -- -- 39
2019-10-09 22:00:00 20.9 9 Noroeste 19 Noroeste 0 -- -- 39
2019-10-09 21:00:00 21.7 9 Noroeste 19 Noroeste 0 -- -- 42
2019-10-09 20:00:00 22.2 10 Noroeste 24 Noroeste 0 -- -- 42
2019-10-09 19:00:00 23.3 16 Noroeste 22 Noroeste 0 -- -- 41
2019-10-09 18:00:00 28.1 4 Sudoeste 11 Sudoeste 0 -- -- 32
2019-10-09 17:00:00 28.5 3 Este 17 Sudeste 0 -- -- 36
2019-10-09 16:00:00 28.1 8 Sudeste 18 Sudeste 0 -- -- 36
2019-10-09 15:00:00 27.1 5 Sudeste 15 Sudeste 0 -- -- 43
2019-10-09 14:00:00 26 7 Sudeste 13 Sudeste 0 -- -- 44
2019-10-09 13:00:00 24.8 7 Sudeste 15 Sudeste 0 -- -- 47
2019-10-09 12:00:00 24.4 6 Sur 13 Sur 0 -- -- 47
2019-10-09 11:00:00 24 4 Sudeste 8 Sudeste 0 -- -- 53
2019-10-09 10:00:00 22.2 3 Noroeste 10 Noroeste 0 -- -- 54
2019-10-09 09:00:00 19.2 4 Oeste 17 Oeste 0 -- -- 59
2019-10-09 08:00:00 19.2 9 Noroeste 18 Noroeste 0 -- -- 59
2019-10-09 07:00:00 19.9 3 Sur 14 Noroeste 0 -- -- 55
2019-10-09 06:00:00 20.8 8 Noroeste 15 Noroeste 0 -- -- 54
2019-10-09 05:00:00 21.6 3 Sur 26 Noroeste 0 -- -- 50
2019-10-09 04:00:00 22.2 15 Noroeste 24 Noroeste 0 -- -- 48
2019-10-09 03:00:00 22.3 15 Noroeste 24 Noroeste 0 -- -- 48
2019-10-09 02:00:00 22.8 21 Noroeste 30 Noroeste 0 -- -- 45
2019-10-09 01:00:00 23.5 15 Noroeste 27 Noroeste 0 -- -- 42
2019-10-09 00:00:00 24.1 15 Noroeste 29 Noroeste 0 -- -- 40
2019-10-08 23:00:00 23.9 18 Noroeste 33 Norte 0 -- -- 39
2019-10-08 22:00:00 22.9 17 Noroeste 26 Noroeste 0 -- -- 42
2019-10-08 21:00:00 22.6 18 Noroeste 23 Noroeste 0 -- -- 42
2019-10-08 20:00:00 22.2 13 Noroeste 19 Noroeste 0 -- -- 46
2019-10-08 19:00:00 23.9 11 Noroeste 16 Noroeste 0 -- -- 43
2019-10-08 18:00:00 29.6 0 Calma 9 Sur 0 -- -- 32
2019-10-08 17:00:00 29.9 5 Sur 10 Sur 0 -- -- 31
2019-10-08 16:00:00 29.3 5 Sur 12 Sudeste 0 -- -- 32
2019-10-08 15:00:00 28.4 7 Sudeste 14 Sur 0 -- -- 33
2019-10-08 14:00:00 27.7 9 Sur 14 Sudeste 0 -- -- 35
2019-10-08 13:00:00 27 5 Sudeste 13 Sudeste 0 -- -- 37
2019-10-08 12:00:00 26.3 6 Sur 10 Oeste 0 -- -- 39
2019-10-08 11:00:00 24.7 3 Sudeste 7 Este 0 -- -- 41
2019-10-08 10:00:00 22.4 0 Calma 10 Norte 0 -- -- 46
2019-10-08 09:00:00 19.5 4 Noroeste 15 Noroeste 0 -- -- 52
2019-10-08 08:00:00 19.2 9 Noroeste 18 Noroeste 0 -- -- 48
2019-10-08 07:00:00 18.7 7 Noroeste 17 Noroeste 0 -- -- 49
2019-10-08 06:00:00 19.8 7 Noroeste 14 Noroeste 0 -- -- 46
2019-10-08 05:00:00 20.1 3 Sudeste 16 Noroeste 0 -- -- 48
2019-10-08 04:00:00 20.2 8 Noroeste 12 Noroeste 0 -- -- 47
2019-10-08 03:00:00 20.9 6 Noroeste 16 Noroeste 0 -- -- 45
2019-10-08 02:00:00 21.1 8 Noroeste 14 Noroeste 0 -- -- 44
2019-10-08 01:00:00 20.7 9 Noroeste 21 Noroeste 0 -- -- 46
2019-10-08 00:00:00 21.3 11 Noroeste 16 Noroeste 0 -- -- 44
2019-10-07 23:00:00 22.1 6 Noroeste 14 Noroeste 0 -- -- 42
2019-10-07 22:00:00 23.8 8 Noroeste 26 Noroeste 0 -- -- 37
2019-10-07 21:00:00 22.7 12 Noroeste 23 Noroeste 0 -- -- 39
2019-10-07 20:00:00 22.7 9 Noroeste 13 Noroeste 0 -- -- 46
2019-10-07 19:00:00 24.2 10 Noroeste 13 Noroeste 0 -- -- 44
2019-10-07 18:00:00 28.8 3 Sur 10 Sur 0 -- -- 33
2019-10-07 17:00:00 28.7 4 Sur 11 Sudeste 0 -- -- 33
2019-10-07 16:00:00 27.8 6 Sudeste 13 Sudeste 0 -- -- 34
2019-10-07 15:00:00 27.5 5 Sudeste 13 Sudeste 0 -- -- 35
2019-10-07 14:00:00 26.5 5 Sudeste 11 Sudeste 0 -- -- 38
2019-10-07 13:00:00 25.1 7 Sur 14 Sudeste 0 -- -- 40
2019-10-07 12:00:00 24.9 8 Sudeste 12 Sur 0 -- -- 39
2019-10-07 11:00:00 24.1 3 Sudeste 5 Este 0 -- -- 36
2019-10-07 10:00:00 22 2 Norte 8 Norte 0 -- -- 47
2019-10-07 09:00:00 18.6 2 Sudoeste 10 Noroeste 0 -- -- 45
2019-10-07 08:00:00 18 4 Noroeste 13 Noroeste 0 -- -- 45
2019-10-07 07:00:00 18.4 2 Oeste 15 Noroeste 0 -- -- 42
2019-10-07 06:00:00 18.4 10 Noroeste 14 Noroeste 0 -- -- 36
2019-10-07 05:00:00 19.1 6 Sudoeste 19 Noroeste 0 -- -- 34
2019-10-07 04:00:00 19.3 6 Noroeste 14 Noroeste 0 -- -- 33
2019-10-07 03:00:00 19.4 6 Oeste 13 Noroeste 0 -- -- 33
2019-10-07 02:00:00 19.4 7 Noroeste 12 Noroeste 0 -- -- 29
2019-10-07 01:00:00 20.9 4 Noroeste 13 Noroeste 0 -- -- 27
2019-10-07 00:00:00 21.6 5 Noroeste 31 Noroeste 0 -- -- 32
2019-10-06 23:00:00 21.4 14 Noroeste 34 Norte 0 -- -- 34
2019-10-06 22:00:00 22.6 16 Noroeste 32 Oeste 0 -- -- 33
2019-10-06 21:00:00 22.4 13 Noroeste 28 Noroeste 0 -- -- 33
2019-10-06 20:00:00 21.8 5 Noroeste 17 Oeste 0 -- -- 34
2019-10-06 19:00:00 23.6 4 Oeste 8 Noroeste 0 -- -- 34
2019-10-06 18:00:00 26.7 3 Sudoeste 12 Sur 0 -- -- 41
2019-10-06 17:00:00 27.1 7 Sur 12 Sudeste 0 -- -- 39
2019-10-06 16:00:00 26.1 8 Sur 13 Sudeste 0 -- -- 41
2019-10-06 15:00:00 25.1 5 Sur 15 Sudeste 0 -- -- 45
2019-10-06 14:00:00 24.3 5 Sur 14 Sudeste 0 -- -- 46
2019-10-06 13:00:00 23.4 7 Sudeste 12 Sur 0 -- -- 46
2019-10-06 12:00:00 21.9 7 Sudeste 13 Sudeste 0 -- -- 48
2019-10-06 11:00:00 20.2 2 Este 8 Este 0 -- -- 57
2019-10-06 10:00:00 18.9 3 Sudeste 6 Sudoeste 0 -- -- 58
2019-10-06 09:00:00 16.5 4 Noroeste 12 Noroeste 0 -- -- 59
2019-10-06 08:00:00 15.6 6 Noroeste 13 Noroeste 0 -- -- 59
2019-10-06 07:00:00 16.1 3 Oeste 10 Noroeste 0 -- -- 56
2019-10-06 06:00:00 17.7 8 Noroeste 14 Noroeste 0 -- -- 45
2019-10-06 05:00:00 18.2 6 Noroeste 11 Oeste 0 -- -- 39
2019-10-06 04:00:00 19.4 6 Noroeste 17 Noroeste 0 -- -- 36
2019-10-06 03:00:00 18.1 10 Noroeste 16 Noroeste 0 -- -- 52
2019-10-06 02:00:00 19.3 6 Noroeste 26 Noroeste 0 -- -- 44
2019-10-06 01:00:00 20.3 23 Noroeste 36 Noroeste 0 -- -- 47
2019-10-06 00:00:00 20.2 16 Noroeste 25 Noroeste 0 -- -- 50
2019-10-05 23:00:00 21.3 9 Noroeste 23 Noroeste 0 -- -- 48
2019-10-05 22:00:00 21.5 17 Noroeste 37 Noroeste 0 -- -- 53
2019-10-05 21:00:00 21.4 14 Norte 29 Norte 0 -- -- 53
2019-10-05 20:00:00 21.1 11 Norte 24 Noroeste 0 -- -- 53
2019-10-05 19:00:00 22.4 10 Noroeste 23 Noroeste 0 -- -- 47
2019-10-05 18:00:00 25.5 13 Noroeste 22 Noroeste 0 -- -- 41
2019-10-05 17:00:00 26.8 10 Noroeste 19 Oeste 0 -- -- 43
2019-10-05 16:00:00 26.4 5 Este 18 Sudeste 0 -- -- 44
2019-10-05 15:00:00 25.4 9 Sudeste 16 Sur 0 -- -- 47
2019-10-05 14:00:00 24.3 10 Sudeste 19 Sur 0 -- -- 50
2019-10-05 13:00:00 23.6 6 Sudeste 15 Sudeste 0 -- -- 50
2019-10-05 12:00:00 22.1 6 Sudeste 11 Sudeste 0 -- -- 57
2019-10-05 11:00:00 20.4 5 Sudeste 9 Este 0 -- -- 60
2019-10-05 10:00:00 19 0 Calma 9 Sur 0 -- -- 61
2019-10-05 09:00:00 16.5 4 Sur 10 Noroeste 0 -- -- 67
2019-10-05 08:00:00 14.9 8 Noroeste 13 Noroeste 0 -- -- 73
2019-10-05 07:00:00 16.1 4 Sudoeste 14 Noroeste 0 -- -- 66
2019-10-05 06:00:00 17 6 Noroeste 10 Noroeste 0 -- -- 64
2019-10-05 05:00:00 16.9 0 Calma 12 Noroeste 0 -- -- 62
2019-10-05 04:00:00 17.8 4 Norte 17 Noroeste 0 -- -- 59
2019-10-05 03:00:00 18.9 10 Noroeste 16 Noroeste 0 -- -- 54
2019-10-05 02:00:00 19 8 Noroeste 17 Noroeste 0 -- -- 51
2019-10-05 01:00:00 20.3 13 Noroeste 32 Norte 0 -- -- 50
2019-10-05 00:00:00 19.8 14 Norte 27 Noroeste 0 -- -- 56
2019-10-04 23:00:00 19.3 11 Norte 22 Noroeste 0 -- -- 54
2019-10-04 22:00:00 19.4 8 Norte 19 Noroeste 0 -- -- 50
2019-10-04 21:00:00 18.9 11 Noroeste 18 Noroeste 0 -- -- 50
2019-10-04 20:00:00 20.6 3 Oeste 23 Noroeste 0 -- -- 50
2019-10-04 19:00:00 22.6 10 Noroeste 15 Oeste 0 -- -- 48
2019-10-04 18:00:00 26.2 8 Oeste 13 Oeste 0 -- -- 39
2019-10-04 17:00:00 27.3 8 Noroeste 17 Sudeste 0 -- -- 35
2019-10-04 16:00:00 26.2 9 Sur 14 Sur 0 -- -- 35
2019-10-04 15:00:00 25.7 6 Sudeste 15 Sudeste 0 -- -- 38
2019-10-04 14:00:00 24.7 7 Sudeste 14 Sudeste 0 -- -- 38
2019-10-04 13:00:00 23.9 7 Sur 13 Sudeste 0 -- -- 39
2019-10-04 12:00:00 22.9 7 Sudeste 11 Sudeste 0 -- -- 38
2019-10-04 11:00:00 22.4 6 Sudeste 10 Sudeste 0 -- -- 46
2019-10-04 10:00:00 20.1 2 Este 7 Noroeste 0 -- -- 48
2019-10-04 09:00:00 16 2 Sudoeste 12 Noroeste 0 -- -- 55
2019-10-04 08:00:00 15.2 3 Noroeste 6 Sudoeste 0 -- -- 56
2019-10-04 07:00:00 15.7 9 Noroeste 14 Noroeste 0 -- -- 53
2019-10-04 06:00:00 17.1 2 Sudoeste 10 Noroeste 0 -- -- 49
2019-10-04 05:00:00 17.8 8 Noroeste 17 Noroeste 0 -- -- 46
2019-10-04 04:00:00 17.9 8 Noroeste 13 Noroeste 0 -- -- 44
2019-10-04 03:00:00 18.4 6 Oeste 13 Noroeste 0 -- -- 44
2019-10-04 02:00:00 18.2 5 Noroeste 10 Noroeste 0 -- -- 46
2019-10-04 01:00:00 18.8 4 Oeste 10 Oeste 0 -- -- 45
2019-10-04 00:00:00 20.2 3 Oeste 34 Noroeste 0 -- -- 43
2019-10-03 23:00:00 21.3 21 Noroeste 33 Noroeste 0 -- -- 36
2019-10-03 22:00:00 20.9 18 Noroeste 27 Noroeste 0 -- -- 37
2019-10-03 21:00:00 20.4 12 Norte 24 Noroeste 0 -- -- 39
2019-10-03 20:00:00 20.8 18 Noroeste 28 Noroeste 0 -- -- 42
2019-10-03 19:00:00 22.8 15 Noroeste 22 Noroeste 0 -- -- 39
2019-10-03 18:00:00 26 5 Oeste 17 Oeste 0 -- -- 32
2019-10-03 17:00:00 25.7 4 Sudoeste 13 Sur 0 -- -- 36
2019-10-03 16:00:00 24.7 4 Sudeste 15 Sur 0 -- -- 39
2019-10-03 15:00:00 23.7 7 Sudeste 14 Sudeste 0 -- -- 41
2019-10-03 14:00:00 22.4 8 Sudeste 15 Sur 0 -- -- 45
2019-10-03 13:00:00 21.6 7 Sur 15 Sur 0 -- -- 44
2019-10-03 12:00:00 21 6 Sudeste 15 Sudeste 0 -- -- 43
2019-10-03 11:00:00 20 6 Sudeste 10 Sudeste 0 -- -- 45
2019-10-03 10:00:00 17.9 2 Nordeste 5 Norte 0 -- -- 49
2019-10-03 09:00:00 14.5 5 Noroeste 13 Noroeste 0 -- -- 57
2019-10-03 08:00:00 14.3 8 Noroeste 18 Noroeste 0 -- -- 54
2019-10-03 07:00:00 13.6 9 Noroeste 15 Noroeste 0 -- -- 57
2019-10-03 06:00:00 13 7 Noroeste 16 Noroeste 0 -- -- 59
2019-10-03 05:00:00 14.3 3 Oeste 7 Noroeste 0 -- -- 55
2019-10-03 04:00:00 14.9 0 Calma 13 Noroeste 0 -- -- 53
2019-10-03 03:00:00 15.1 6 Noroeste 10 Noroeste 0 -- -- 52
2019-10-03 02:00:00 15 9 Noroeste 17 Noroeste 0 -- -- 53
2019-10-03 01:00:00 16.5 7 Sur 18 Sudeste 0 -- -- 50
2019-10-03 00:00:00 17.1 9 Noroeste 17 Oeste 0 -- -- 49
2019-10-02 23:00:00 16.6 12 Noroeste 19 Noroeste 0 -- -- 52
2019-10-02 22:00:00 16.7 12 Noroeste 18 Noroeste 0 -- -- 50
2019-10-02 21:00:00 17.9 8 Noroeste 21 Noroeste 0 -- -- 43
2019-10-02 20:00:00 18.9 11 Noroeste 16 Noroeste 0 -- -- 46
2019-10-02 19:00:00 20.6 4 Sudoeste 10 Sur 0 -- -- 49
2019-10-02 18:00:00 24.5 3 Noroeste 10 Sur 0 -- -- 42
2019-10-02 17:00:00 23.3 3 Nordeste 9 Sudeste 0 -- -- 40
2019-10-02 16:00:00 22.9 4 Sur 19 Sur 0 -- -- 43
2019-10-02 15:00:00 22.7 9 Sur 17 Sur 0 -- -- 46
2019-10-02 14:00:00 21.6 8 Sur 17 Sudeste 0 -- -- 49
2019-10-02 13:00:00 20.3 7 Sudeste 15 Sudeste 0 -- -- 53
2019-10-02 12:00:00 19.1 6 Sudeste 15 Sudeste 0 -- -- 54
2019-10-02 11:00:00 18 8 Sudeste 13 Sudeste 0 -- -- 57
2019-10-02 10:00:00 17 3 Sudeste 8 Sudoeste 0 -- -- 54
2019-10-02 09:00:00 16.7 2 Sudoeste 26 Noroeste 0 -- -- 29
2019-10-02 08:00:00 17.8 18 Noroeste 36 Noroeste 0 -- -- 19
2019-10-02 07:00:00 18 25 Noroeste 35 Noroeste 0 -- -- 21
2019-10-02 06:00:00 18.2 20 Noroeste 30 Noroeste 0 -- -- 24
2019-10-02 05:00:00 17.2 3 Norte 37 Noroeste 0 -- -- 32
2019-10-02 04:00:00 18.1 22 Noroeste 35 Noroeste 0 -- -- 36
2019-10-02 03:00:00 18 24 Noroeste 38 Noroeste 0 -- -- 38
2019-10-02 02:00:00 17.3 25 Noroeste 36 Noroeste 0 -- -- 50
2019-10-02 01:00:00 17.5 21 Noroeste 39 Noroeste 0 -- -- 50
2019-10-02 00:00:00 17.8 6 Oeste 22 Noroeste 0 -- -- 53
2019-10-01 23:00:00 18.7 14 Noroeste 26 Noroeste 0 -- -- 52
2019-10-01 22:00:00 18.4 4 Norte 17 Norte 0 -- -- 54
2019-10-01 21:00:00 18.3 8 Noroeste 22 Noroeste 0 -- -- 57
2019-10-01 20:00:00 19.8 5 Noroeste 35 Noroeste 0 -- -- 51
2019-10-01 19:00:00 21.1 16 Noroeste 41 Noroeste 0 -- -- 46
2019-10-01 18:00:00 22.9 9 Norte 29 Norte 0 -- -- 43
2019-10-01 17:00:00 23.3 16 Noroeste 41 Noroeste 0 -- -- 46
2019-10-01 16:00:00 23.6 21 Norte 39 Norte 0 -- -- 49
2019-10-01 15:00:00 23.4 19 Norte 42 Norte 0 -- -- 48
2019-10-01 14:00:00 23.8 18 Norte 42 Noroeste 0 -- -- 46
2019-10-01 13:00:00 23.4 22 Norte 44 Noroeste 0 -- -- 42
2019-10-01 12:00:00 20.7 7 Sudeste 21 Sudoeste 0 -- -- 54
2019-10-01 11:00:00 19.9 4 Oeste 14 Noroeste 0 -- -- 51
2019-10-01 10:00:00 21 0 Calma 4 Norte 0 -- -- 29
2019-10-01 09:00:00 18.1 4 Oeste 18 Noroeste 0 -- -- 31
2019-10-01 08:00:00 17.1 9 Noroeste 19 Noroeste 0 -- -- 31
2019-10-01 07:00:00 18.1 11 Noroeste 20 Noroeste 0 -- -- 53
2019-10-01 06:00:00 17.8 8 Noroeste 15 Noroeste 0 -- -- 56
2019-10-01 05:00:00 19.5 4 Noroeste 15 Noroeste 0 -- -- 47
2019-10-01 04:00:00 19.1 8 Noroeste 18 Noroeste 0 -- -- 48
2019-10-01 03:00:00 17.7 11 Noroeste 20 Noroeste 0 -- -- 49
2019-10-01 02:00:00 18.7 13 Noroeste 23 Noroeste 0 -- -- 44
2019-10-01 01:00:00 19.1 14 Noroeste 23 Noroeste 0 -- -- 36
2019-10-01 00:00:00 18.8 10 Noroeste 21 Noroeste 0 -- -- 35
2019-09-30 23:00:00 19.8 15 Noroeste 22 Noroeste 0 -- -- 36
2019-09-30 22:00:00 19.2 12 Noroeste 18 Noroeste 0 -- -- 40
2019-09-30 21:00:00 22.1 12 Noroeste 20 Noroeste 0 -- -- 32
2019-09-30 20:00:00 21.9 14 Noroeste 19 Noroeste 0 -- -- 36
2019-09-30 19:00:00 23.7 7 Noroeste 14 Noroeste 0 -- -- 32
2019-09-30 18:00:00 28.7 3 Noroeste 8 Noroeste 0 -- -- 26
2019-09-30 17:00:00 28.3 0 Calma 11 Sur 0 -- -- 28
2019-09-30 16:00:00 28.2 5 Sur 14 Sudeste 0 -- -- 25
2019-09-30 15:00:00 27.6 6 Sudeste 13 Sudeste 0 -- -- 28
2019-09-30 14:00:00 26.8 7 Sudeste 13 Sur 0 -- -- 31
2019-09-30 13:00:00 26.1 6 Sur 13 Sur 0 -- -- 33
2019-09-30 12:00:00 25.3 7 Sudeste 12 Sur 0 -- -- 34
2019-09-30 11:00:00 23.3 2 Este 5 Sudeste 0 -- -- 38
2019-09-30 10:00:00 22.3 0 Calma 8 Norte 0 -- -- 43
2019-09-30 09:00:00 18.3 3 Noroeste 14 Noroeste 0 -- -- 44
2019-09-30 08:00:00 17.7 0 Calma 9 Noroeste 0 -- -- 37
2019-09-30 07:00:00 18 7 Noroeste 12 Noroeste 0 -- -- 36
2019-09-30 06:00:00 18.4 6 Noroeste 12 Noroeste 0 -- -- 36
2019-09-30 05:00:00 18.2 2 Noroeste 11 Noroeste 0 -- -- 37
2019-09-30 04:00:00 18.9 5 Noroeste 13 Noroeste 0 -- -- 36
2019-09-30 03:00:00 20.1 8 Noroeste 14 Noroeste 0 -- -- 33
2019-09-30 02:00:00 20.1 9 Noroeste 18 Noroeste 0 -- -- 35
2019-09-30 01:00:00 20.9 8 Noroeste 13 Oeste 0 -- -- 32
2019-09-30 00:00:00 22 8 Noroeste 27 Noroeste 0 -- -- 31
2019-09-29 23:00:00 22.6 19 Noroeste 28 Noroeste 0 -- -- 30
2019-09-29 22:00:00 21.4 16 Noroeste 26 Noroeste 0 -- -- 29
2019-09-29 21:00:00 21.6 15 Noroeste 23 Noroeste 0 -- -- 28
2019-09-29 20:00:00 21.9 14 Noroeste 22 Noroeste 0 -- -- 28
2019-09-29 19:00:00 23.3 10 Noroeste 17 Noroeste 0 -- -- 27
2019-09-29 18:00:00 27.6 10 Oeste 15 Oeste 0 -- -- 22
2019-09-29 17:00:00 28.6 9 Noroeste 17 Noroeste 0 -- -- 23
2019-09-29 16:00:00 28.5 5 Oeste 19 Noroeste 0 -- -- 25
2019-09-29 15:00:00 27.6 9 Sudeste 18 Sudeste 0 -- -- 29
2019-09-29 14:00:00 27 9 Sur 15 Sur 0 -- -- 35
2019-09-29 13:00:00 25.2 6 Sudeste 11 Sudeste 0 -- -- 39
2019-09-29 12:00:00 23.8 5 Sudeste 10 Sudeste 0 -- -- 42
2019-09-29 11:00:00 22.5 5 Sudeste 9 Sudeste 0 -- -- 46
2019-09-29 10:00:00 22.6 3 Este 11 Noroeste 0 -- -- 43
2019-09-29 09:00:00 19.7 0 Calma 14 Noroeste 0 -- -- 48
2019-09-29 08:00:00 18.3 10 Noroeste 18 Noroeste 0 -- -- 45
2019-09-29 07:00:00 19.2 8 Noroeste 17 Oeste 0 -- -- 44
2019-09-29 06:00:00 19 8 Noroeste 21 Noroeste 0 -- -- 43
2019-09-29 05:00:00 19.2 15 Noroeste 22 Oeste 0 -- -- 43
2019-09-29 04:00:00 19.2 15 Noroeste 26 Noroeste 0 -- -- 43
2019-09-29 03:00:00 19.4 8 Noroeste 19 Noroeste 0 -- -- 40
2019-09-29 02:00:00 20.4 13 Noroeste 22 Noroeste 0 -- -- 39
2019-09-29 01:00:00 22 15 Noroeste 22 Noroeste 0 -- -- 34
2019-09-29 00:00:00 21.7 14 Noroeste 23 Noroeste 0 -- -- 34
2019-09-28 23:00:00 20.9 16 Noroeste 21 Noroeste 0 -- -- 37
2019-09-28 22:00:00 19.9 13 Noroeste 21 Noroeste 0 -- -- 37
2019-09-28 21:00:00 19.8 14 Noroeste 22 Noroeste 0 -- -- 37
2019-09-28 20:00:00 20.8 14 Noroeste 20 Noroeste 0 -- -- 40
2019-09-28 19:00:00 23.1 8 Noroeste 11 Noroeste 0 -- -- 39
2019-09-28 18:00:00 27.8 4 Noroeste 9 Sudeste 0 -- -- 32
2019-09-28 17:00:00 27.2 5 Sudeste 13 Sur 0 -- -- 31
2019-09-28 16:00:00 27.2 5 Sudeste 13 Sur 0 -- -- 34
2019-09-28 15:00:00 26.5 4 Sudeste 15 Sudeste 0 -- -- 34
2019-09-28 14:00:00 25.6 8 Sudeste 15 Sudeste 0 -- -- 38
2019-09-28 13:00:00 24.7 5 Sudeste 17 Sudeste 0 -- -- 39
2019-09-28 12:00:00 23.9 6 Sur 14 Sudeste 0 -- -- 41
2019-09-28 11:00:00 22.3 5 Sudeste 9 Sudeste 0 -- -- 42
2019-09-28 10:00:00 20.2 2 Nordeste 5 Noroeste 0 -- -- 50
2019-09-28 09:00:00 16.9 0 Calma 7 Sudoeste 0 -- -- 55
2019-09-28 08:00:00 15.9 3 Sudoeste 7 Oeste 0 -- -- 52
2019-09-28 07:00:00 16.4 5 Oeste 12 Noroeste 0 -- -- 50
2019-09-28 06:00:00 17.1 0 Calma 9 Noroeste 0 -- -- 47
2019-09-28 05:00:00 16.9 3 Oeste 12 Noroeste 0 -- -- 48
2019-09-28 04:00:00 18.5 3 Oeste 13 Noroeste 0 -- -- 44
2019-09-28 03:00:00 19 9 Noroeste 17 Noroeste 0 -- -- 41
2019-09-28 02:00:00 19 6 Oeste 19 Noroeste 0 -- -- 41
2019-09-28 01:00:00 19.2 11 Noroeste 17 Noroeste 0 -- -- 42
2019-09-28 00:00:00 19.6 8 Noroeste 18 Noroeste 0 -- -- 41
2019-09-27 23:00:00 20.1 10 Noroeste 22 Noroeste 0 -- -- 40
2019-09-27 22:00:00 21.3 16 Noroeste 26 Norte 0 -- -- 38
2019-09-27 21:00:00 21.8 18 Noroeste 31 Noroeste 0 -- -- 37
2019-09-27 20:00:00 21.8 15 Noroeste 26 Norte 0 -- -- 37
2019-09-27 19:00:00 23.5 13 Noroeste 24 Noroeste 0 -- -- 34
2019-09-27 18:00:00 26.3 16 Noroeste 27 Noroeste 0 -- -- 30
2019-09-27 17:00:00 27.2 14 Noroeste 24 Oeste 0 -- -- 27
2019-09-27 16:00:00 27.9 10 Noroeste 22 Norte 0 -- -- 28
2019-09-27 15:00:00 26.8 10 Sudeste 17 Sudeste 0 -- -- 38
2019-09-27 14:00:00 25.5 5 Sudeste 17 Sudeste 0 -- -- 46
2019-09-27 13:00:00 24.4 8 Sudeste 14 Sudeste 0 -- -- 48
2019-09-27 12:00:00 23.2 5 Sudeste 12 Sudeste 0 -- -- 49
2019-09-27 11:00:00 22.4 6 Sudeste 10 Sudeste 0 -- -- 51
2019-09-27 10:00:00 21.3 0 Calma 12 Noroeste 0 -- -- 49
2019-09-27 09:00:00 16.9 5 Norte 10 Noroeste 0 -- -- 62
2019-09-27 08:00:00 16.6 0 Calma 14 Noroeste 0 -- -- 58
2019-09-27 07:00:00 17.8 6 Noroeste 20 Oeste 0 -- -- 49
2019-09-27 06:00:00 18.9 14 Noroeste 21 Noroeste 0 -- -- 45
2019-09-27 05:00:00 19.1 9 Noroeste 19 Noroeste 0 -- -- 49
2019-09-27 04:00:00 18.7 10 Noroeste 15 Noroeste 0 -- -- 52
2019-09-27 03:00:00 18.8 9 Noroeste 15 Noroeste 0 -- -- 53
2019-09-27 02:00:00 18.9 8 Noroeste 19 Noroeste 0 -- -- 54
2019-09-27 01:00:00 19.8 9 Noroeste 15 Noroeste 0 -- -- 52
2019-09-27 00:00:00 21 9 Noroeste 23 Noroeste 0 -- -- 47
2019-09-26 23:00:00 21 15 Noroeste 29 Noroeste 0 -- -- 48
2019-09-26 22:00:00 20.2 18 Noroeste 27 Norte 0 -- -- 51
2019-09-26 21:00:00 19.4 10 Norte 18 Noroeste 0.2 -- -- 53
2019-09-26 20:00:00 20.1 12 Noroeste 19 Noroeste 0 -- -- 57
2019-09-26 19:00:00 23.4 9 Noroeste 13 Oeste 0 -- -- 46
2019-09-26 18:00:00 27.5 5 Noroeste 12 Sudeste 0 -- -- 39
2019-09-26 17:00:00 27 7 Sur 15 Sur 0 -- -- 39
2019-09-26 16:00:00 26.2 6 Sur 15 Sudeste 0 -- -- 39
2019-09-26 15:00:00 25.4 4 Sudeste 17 Sur 0 -- -- 42
2019-09-26 14:00:00 25 6 Sur 15 Sur 0 -- -- 43
2019-09-26 13:00:00 23.6 5 Sudeste 13 Sudeste 0 -- -- 48
2019-09-26 12:00:00 22.5 6 Sudeste 16 Sudeste 0 -- -- 51
2019-09-26 11:00:00 21.2 6 Sudeste 13 Sudeste 0 -- -- 57
2019-09-26 10:00:00 19.8 3 Este 5 Sudeste 0 -- -- 60
2019-09-26 09:00:00 16.8 0 Calma 12 Noroeste 0 -- -- 70
2019-09-26 08:00:00 15.6 0 Calma 9 Noroeste 0 -- -- 70
2019-09-26 07:00:00 16.1 0 Calma 12 Noroeste 0 -- -- 67
2019-09-26 06:00:00 16.5 3 Oeste 9 Oeste 0 -- -- 66
2019-09-26 05:00:00 16.8 7 Noroeste 13 Noroeste 0 -- -- 64
2019-09-26 04:00:00 17 4 Noroeste 15 Noroeste 0 -- -- 64
2019-09-26 03:00:00 17.2 3 Oeste 10 Noroeste 0 -- -- 64
2019-09-26 02:00:00 17.7 7 Noroeste 13 Noroeste 0 -- -- 61
2019-09-26 01:00:00 18.3 3 Oeste 14 Noroeste 0 -- -- 58
2019-09-26 00:00:00 18.1 8 Noroeste 14 Noroeste 0 -- -- 61
2019-09-25 23:00:00 17.8 8 Noroeste 15 Oeste 0 -- -- 64
2019-09-25 22:00:00 18.5 12 Noroeste 20 Noroeste 0 -- -- 61
2019-09-25 21:00:00 18.9 9 Noroeste 23 Noroeste 0 -- -- 58
2019-09-25 20:00:00 20.6 14 Norte 31 Noroeste 0 -- -- 54
2019-09-25 19:00:00 22.5 10 Norte 18 Norte 0 -- -- 51
2019-09-25 18:00:00 24.4 6 Sur 17 Sudeste 0 -- -- 46
2019-09-25 17:00:00 24.2 8 Sur 18 Sur 0 -- -- 50
2019-09-25 16:00:00 23.5 8 Sudeste 17 Sudeste 0 -- -- 52
2019-09-25 15:00:00 22.6 6 Sudeste 18 Sudeste 0 -- -- 58
2019-09-25 14:00:00 21.8 8 Sudeste 15 Sur 0 -- -- 62
2019-09-25 13:00:00 20.6 8 Sudeste 17 Sur 0 -- -- 63
2019-09-25 12:00:00 19.5 7 Sur 15 Sudeste 0 -- -- 66
2019-09-25 11:00:00 18.1 7 Sudeste 13 Sudeste 0 -- -- 73
2019-09-25 10:00:00 16.7 5 Sudeste 9 Sudeste 0 -- -- 74
2019-09-25 09:00:00 13.1 5 Norte 8 Noroeste 0 -- -- 87
2019-09-25 08:00:00 12.8 5 Sudoeste 12 Noroeste 0 -- -- 83
2019-09-25 07:00:00 13 4 Noroeste 6 Noroeste 0 -- -- 75
2019-09-25 06:00:00 13.5 0 Calma 9 Sudoeste 0 -- -- 86
2019-09-25 05:00:00 15.9 6 Sur 47 Noroeste 0 -- -- 74
2019-09-25 04:00:00 16.4 27 Noroeste 38 Noroeste 0 -- -- 63
2019-09-25 03:00:00 16.8 26 Noroeste 45 Noroeste 0 -- -- 65
2019-09-25 02:00:00 16.5 27 Noroeste 42 Noroeste 0 -- -- 70
2019-09-25 01:00:00 16.6 16 Norte 30 Norte 0 -- -- 73
2019-09-25 00:00:00 16.9 9 Norte 22 Norte 0 -- -- 77
2019-09-24 23:00:00 17 7 Noroeste 25 Norte 0 -- -- 79
2019-09-24 22:00:00 18.7 14 Norte 36 Norte 0 -- -- 71
2019-09-24 21:00:00 19.4 6 Noroeste 23 Oeste 0 -- -- 78
2019-09-24 20:00:00 20.3 9 Noroeste 25 Noroeste 0 -- -- 75
2019-09-24 19:00:00 20.9 12 Noroeste 32 Noroeste 0 -- -- 73
2019-09-24 18:00:00 21.6 12 Noroeste 33 Noroeste 0 -- -- 71
2019-09-24 17:00:00 23.8 14 Noroeste 29 Oeste 0 -- -- 62
2019-09-24 16:00:00 24.8 7 Noroeste 26 Noroeste 0 -- -- 57
2019-09-24 15:00:00 23.9 16 Noroeste 30 Oeste 0 -- -- 61
2019-09-24 14:00:00 24.1 10 Noroeste 24 Noroeste 0 -- -- 60
2019-09-24 13:00:00 23.2 7 Sudeste 13 Sudeste 0 -- -- 53
2019-09-24 12:00:00 20.9 6 Sudeste 13 Sudeste 0 -- -- 61
2019-09-24 11:00:00 19.9 6 Sudeste 11 Sudeste 0 -- -- 59
2019-09-24 10:00:00 19.6 4 Sudeste 12 Noroeste 0 -- -- 57
2019-09-24 09:00:00 17.2 6 Noroeste 17 Noroeste 0 -- -- 59
2019-09-24 08:00:00 15.4 9 Noroeste 19 Noroeste 0 -- -- 65
2019-09-24 07:00:00 15.3 7 Noroeste 13 Noroeste 0 -- -- 66
2019-09-24 06:00:00 16.3 5 Noroeste 18 Noroeste 0 -- -- 63
2019-09-24 05:00:00 16.8 10 Noroeste 21 Noroeste 0 -- -- 58
2019-09-24 04:00:00 16.9 11 Noroeste 21 Noroeste 0 -- -- 57
2019-09-24 03:00:00 16.8 15 Noroeste 21 Oeste 0 -- -- 58
2019-09-24 02:00:00 16.3 9 Noroeste 16 Noroeste 0 -- -- 60
2019-09-24 01:00:00 16.1 7 Noroeste 17 Noroeste 0 -- -- 58
2019-09-24 00:00:00 16.7 12 Noroeste 19 Noroeste 0 -- -- 55
2019-09-23 23:00:00 17 14 Noroeste 24 Noroeste 0 -- -- 56
2019-09-23 22:00:00 17.8 18 Noroeste 27 Noroeste 0 -- -- 53
2019-09-23 21:00:00 17.2 17 Noroeste 22 Noroeste 0 -- -- 53
2019-09-23 20:00:00 18.5 14 Noroeste 19 Noroeste 0 -- -- 52
2019-09-23 19:00:00 21.6 9 Noroeste 13 Noroeste 0 -- -- 48
2019-09-23 18:00:00 23.7 2 Noroeste 6 Sur 0 -- -- 47
2019-09-23 17:00:00 23 4 Este 15 Sudeste 0 -- -- 46
2019-09-23 16:00:00 22.6 11 Sudeste 18 Sudeste 0 -- -- 49
2019-09-23 15:00:00 21.5 7 Sudeste 18 Sur 0 -- -- 53
2019-09-23 14:00:00 20.7 6 Sudeste 15 Sur 0 -- -- 61
2019-09-23 13:00:00 19.5 8 Sudeste 15 Sudeste 0 -- -- 66
2019-09-23 12:00:00 18.6 5 Sudeste 13 Sudeste 0 -- -- 66
2019-09-23 11:00:00 17.2 4 Sudeste 9 Sudeste 0 -- -- 70
2019-09-23 10:00:00 15.1 2 Nordeste 6 Nordeste 0 -- -- 72
2019-09-23 09:00:00 13.9 0 Calma 3 Sudoeste 0 -- -- 77
2019-09-23 08:00:00 12.5 0 Calma 9 Noroeste 0 -- -- 76
2019-09-23 07:00:00 12.8 2 Oeste 18 Noroeste 0 -- -- 73
2019-09-23 06:00:00 13 10 Noroeste 23 Noroeste 0 -- -- 74
2019-09-23 05:00:00 12.6 10 Noroeste 14 Noroeste 0 -- -- 77
2019-09-23 04:00:00 13.4 6 Noroeste 12 Noroeste 0 -- -- 74
2019-09-23 03:00:00 14.1 7 Noroeste 17 Noroeste 0 -- -- 70
2019-09-23 02:00:00 14.3 8 Noroeste 20 Noroeste 0 -- -- 70
2019-09-23 01:00:00 14.5 14 Noroeste 22 Noroeste 0 -- -- 68
2019-09-23 00:00:00 14.5 14 Noroeste 27 Noroeste 0 -- -- 71
2019-09-22 23:00:00 14.9 13 Noroeste 27 Noroeste 0 -- -- 70
2019-09-22 22:00:00 15.1 12 Noroeste 23 Noroeste 0 -- -- 73
2019-09-22 21:00:00 15.3 8 Noroeste 20 Noroeste 0 -- -- 73
2019-09-22 20:00:00 16.5 9 Noroeste 22 Noroeste 0 -- -- 74
2019-09-22 19:00:00 17.7 9 Noroeste 22 Oeste 0 -- -- 68
2019-09-22 18:00:00 20 10 Noroeste 24 Noroeste 0 -- -- 60
2019-09-22 17:00:00 20.2 12 Noroeste 27 Noroeste 0 -- -- 58
2019-09-22 16:00:00 20.6 9 Noroeste 28 Noroeste 0 -- -- 61
2019-09-22 15:00:00 20.4 12 Noroeste 28 Noroeste 0 -- -- 56
2019-09-22 14:00:00 19.4 8 Noroeste 31 Norte 0 -- -- 63
2019-09-22 13:00:00 17.4 6 Norte 18 Norte 0 -- -- 76
2019-09-22 12:00:00 14.6 6 Sudeste 12 Sudeste 0 -- -- 96
2019-09-22 11:00:00 13.9 4 Sudeste 12 Sur 0 -- -- 97
2019-09-22 10:00:00 14.4 5 Sudeste 19 Noroeste 0 -- -- 92
2019-09-22 09:00:00 12.8 12 Noroeste 21 Noroeste 0 -- -- 93
2019-09-22 08:00:00 12.1 8 Noroeste 18 Noroeste 0 -- -- 90
2019-09-22 07:00:00 12.7 10 Noroeste 15 Noroeste 0 -- -- 94
2019-09-22 06:00:00 14.8 3 Noroeste 9 Noroeste 0 -- -- 99
2019-09-22 05:00:00 15.5 3 Sudoeste 8 Nordeste 0.8 -- -- 100
2019-09-22 04:00:00 15.6 2 Nordeste 15 Sudeste 2.6 -- -- 100
2019-09-22 03:00:00 15.5 2 Sudeste 12 Sur 5.8 -- -- 100
2019-09-22 02:00:00 15.3 4 Nordeste 19 Sur 6 -- -- 99
2019-09-22 01:00:00 15.7 4 Sur 24 Sudoeste 9.4 -- -- 99
2019-09-22 00:00:00 15.8 8 Sur 15 Sur 7.6 -- -- 99
2019-09-21 23:00:00 15.6 5 Sur 10 Sudeste 0.6 -- -- 99
2019-09-21 22:00:00 15.7 3 Oeste 6 Oeste 0 -- -- 99
2019-09-21 21:00:00 15.1 2 Sudeste 6 Sudeste 1.6 -- -- 99
2019-09-21 20:00:00 14.8 3 Norte 5 Sudeste 0 -- -- 99
2019-09-21 19:00:00 14.7 3 Sudoeste 13 Sudoeste 6.4 -- -- 98
2019-09-21 18:00:00 14.8 0 Calma 5 Este 3.4 -- -- 97
2019-09-21 17:00:00 14.8 0 Calma 9 Nordeste 3 -- -- 97
2019-09-21 16:00:00 14.6 4 Norte 7 Norte 5.6 -- -- 97
2019-09-21 15:00:00 15 0 Calma 6 Oeste 3.8 -- -- 94
2019-09-21 14:00:00 15.2 5 Noroeste 12 Sudeste 2.2 -- -- 94
2019-09-21 13:00:00 15.5 4 Sudeste 12 Sur 0.8 -- -- 94
2019-09-21 12:00:00 15.8 6 Sur 12 Sur 1 -- -- 93
2019-09-21 11:00:00 15.5 7 Sur 12 Sur 1 -- -- 96
2019-09-21 10:00:00 15.2 0 Calma 6 Oeste 1 -- -- 96
2019-09-21 09:00:00 14.9 5 Noroeste 9 Sudoeste 0.8 -- -- 93
2019-09-21 08:00:00 15.5 2 Sudoeste 6 Noroeste 0 -- -- 85
2019-09-21 07:00:00 15.2 0 Calma 7 Noroeste 0 -- -- 89
2019-09-21 06:00:00 15.6 0 Calma 9 Sudoeste 0.2 -- -- 88
2019-09-21 05:00:00 16 2 Norte 6 Noroeste 0 -- -- 80
2019-09-21 04:00:00 16 0 Calma 5 Oeste 0 -- -- 80
2019-09-21 03:00:00 15.5 4 Noroeste 10 Noroeste 0 -- -- 80
2019-09-21 02:00:00 16.6 2 Sur 4 Sudoeste 0 -- -- 80
2019-09-21 01:00:00 17.1 3 Noroeste 5 Noroeste 0 -- -- 81
2019-09-21 00:00:00 17.5 0 Calma 4 Norte 0 -- -- 76
2019-09-20 23:00:00 17.6 0 Calma 6 Noroeste 0 -- -- 75
2019-09-20 22:00:00 17.7 4 Oeste 15 Oeste 0 -- -- 77
2019-09-20 21:00:00 18.5 8 Noroeste 32 Sur 0 -- -- 79
2019-09-20 20:00:00 21.1 9 Sudeste 23 Oeste 0 -- -- 61
2019-09-20 19:00:00 22.8 6 Sudoeste 21 Sur 0 -- -- 51
2019-09-20 18:00:00 23.3 11 Sudoeste 24 Sudoeste 0 -- -- 49
2019-09-20 17:00:00 22.9 7 Sur 25 Sudeste 0 -- -- 55
2019-09-20 16:00:00 24 12 Sudeste 29 Sur 0 -- -- 50
2019-09-20 15:00:00 24.7 14 Sudeste 28 Sudeste 0 -- -- 49
2019-09-20 14:00:00 23.7 12 Sur 25 Sur 0 -- -- 54
2019-09-20 13:00:00 23.9 12 Sudeste 28 Sur 0 -- -- 51
2019-09-20 12:00:00 22.8 12 Sur 22 Sur 0 -- -- 58
2019-09-20 11:00:00 20.3 6 Sur 14 Sur 0 -- -- 70
2019-09-20 10:00:00 19.1 6 Sur 20 Sudoeste 0 -- -- 72
2019-09-20 09:00:00 18.4 8 Sudoeste 17 Sur 0 -- -- 73
2019-09-20 08:00:00 17.9 4 Sudoeste 7 Oeste 0 -- -- 70
2019-09-20 07:00:00 18.7 3 Sur 11 Sudoeste 0 -- -- 61
2019-09-20 06:00:00 18.8 5 Sudoeste 13 Sur 0 -- -- 64
2019-09-20 05:00:00 19.3 4 Sudoeste 9 Sur 0 -- -- 59
2019-09-20 04:00:00 19.2 5 Noroeste 10 Noroeste 0 -- -- 59
2019-09-20 03:00:00 20.6 7 Sudoeste 14 Noroeste 0 -- -- 53
2019-09-20 02:00:00 21.1 9 Noroeste 17 Noroeste 0 -- -- 50
2019-09-20 01:00:00 20.5 9 Noroeste 18 Noroeste 0 -- -- 53
2019-09-20 00:00:00 20.7 6 Noroeste 15 Noroeste 0 -- -- 50
2019-09-19 23:00:00 20.4 6 Noroeste 16 Noroeste 0 -- -- 58
2019-09-19 22:00:00 21 10 Noroeste 19 Noroeste 0 -- -- 58
2019-09-19 21:00:00 21.4 10 Noroeste 14 Noroeste 0 -- -- 56
2019-09-19 20:00:00 22.9 7 Noroeste 11 Noroeste 0 -- -- 57
2019-09-19 19:00:00 25.6 5 Sudoeste 13 Sur 0 -- -- 45
2019-09-19 18:00:00 27.9 5 Sur 16 Sur 0 -- -- 40
2019-09-19 17:00:00 28.2 6 Sur 18 Sur 0 -- -- 38
2019-09-19 16:00:00 28 8 Sur 17 Sur 0 -- -- 40
2019-09-19 15:00:00 27.2 7 Sudoeste 14 Sur 0 -- -- 43
2019-09-19 14:00:00 26 5 Sudeste 14 Sudeste 0 -- -- 48
2019-09-19 13:00:00 25 8 Sur 14 Sudeste 0 -- -- 52
2019-09-19 12:00:00 24 8 Sudeste 14 Sudeste 0 -- -- 55
2019-09-19 11:00:00 22.9 6 Sudeste 12 Sudeste 0 -- -- 59
2019-09-19 10:00:00 21.4 0 Calma 4 Sudeste 0 -- -- 62
2019-09-19 09:00:00 19.5 0 Calma 8 Noroeste 0 -- -- 68
2019-09-19 08:00:00 18.4 6 Noroeste 14 Noroeste 0 -- -- 67
2019-09-19 07:00:00 19 6 Noroeste 12 Noroeste 0 -- -- 64
2019-09-19 06:00:00 19.8 3 Oeste 14 Noroeste 0 -- -- 61
2019-09-19 05:00:00 19.7 8 Noroeste 15 Noroeste 0 -- -- 62
2019-09-19 04:00:00 19 7 Noroeste 15 Noroeste 0 -- -- 65
2019-09-19 03:00:00 19.3 12 Noroeste 17 Noroeste 0 -- -- 63
2019-09-19 02:00:00 19.8 6 Noroeste 17 Noroeste 0 -- -- 61
2019-09-19 01:00:00 20.2 11 Noroeste 17 Noroeste 0 -- -- 60
2019-09-19 00:00:00 20.6 10 Noroeste 17 Noroeste 0 -- -- 58
2019-09-18 23:00:00 20.7 14 Noroeste 19 Noroeste 0 -- -- 58
2019-09-18 22:00:00 20.2 13 Noroeste 21 Noroeste 0 -- -- 63
2019-09-18 21:00:00 21 10 Noroeste 21 Noroeste 0 -- -- 57
2019-09-18 20:00:00 22.3 12 Noroeste 16 Noroeste 0 -- -- 56
2019-09-18 19:00:00 25.6 6 Noroeste 8 Noroeste 0 -- -- 49
2019-09-18 18:00:00 27 5 Sudeste 16 Sudeste 0 -- -- 44
2019-09-18 17:00:00 27.2 8 Sur 17 Sur 0 -- -- 46
2019-09-18 16:00:00 26.9 6 Sur 13 Sudeste 0 -- -- 46
2019-09-18 15:00:00 26.3 8 Sudeste 14 Sudeste 0 -- -- 45
2019-09-18 14:00:00 25.1 6 Sudeste 12 Sudeste 0 -- -- 44
2019-09-18 13:00:00 23.8 7 Sudeste 14 Sudeste 0 -- -- 52
2019-09-18 12:00:00 22.5 5 Sur 12 Sur 0 -- -- 54
2019-09-18 11:00:00 21 5 Sudeste 8 Sudeste 0 -- -- 65
2019-09-18 10:00:00 19.6 2 Este 12 Noroeste 0 -- -- 63
2019-09-18 09:00:00 15.8 7 Noroeste 13 Noroeste 0 -- -- 79
2019-09-18 08:00:00 14.2 7 Noroeste 13 Noroeste 0 -- -- 78
2019-09-18 07:00:00 14.6 5 Oeste 9 Noroeste 0 -- -- 76
2019-09-18 06:00:00 13.9 7 Noroeste 10 Noroeste 0 -- -- 80
2019-09-18 05:00:00 14.5 4 Oeste 10 Noroeste 0 -- -- 74
2019-09-18 04:00:00 14.6 5 Sudoeste 11 Noroeste 0 -- -- 78
2019-09-18 03:00:00 16.9 4 Sur 21 Noroeste 0 -- -- 64
2019-09-18 02:00:00 15.7 12 Noroeste 21 Noroeste 0 -- -- 71
2019-09-18 01:00:00 14.8 12 Noroeste 22 Noroeste 0 -- -- 81
2019-09-18 00:00:00 14.8 3 Sur 24 Noroeste 0 -- -- 86
2019-09-17 23:00:00 15.3 3 Noroeste 26 Noroeste 0.8 -- -- 82
2019-09-17 22:00:00 15 14 Noroeste 22 Noroeste 0.2 -- -- 85
2019-09-17 21:00:00 15.8 6 Oeste 47 Noroeste 2.4 -- -- 82